sensor_id;sensor_type;location;lat;lon;timestamp;temperature;humidity
23813;DHT22;12087;45.190;5.688;2022-09-23T00:03:31;14.00;99.90
23813;DHT22;12087;45.190;5.688;2022-09-23T00:08:55;14.10;99.90
23813;DHT22;12087;45.190;5.688;2022-09-23T00:14:18;14.10;99.90
23813;DHT22;12087;45.190;5.688;2022-09-23T00:19:41;14.10;99.90
23813;DHT22;12087;45.190;5.688;2022-09-23T00:25:07;14.10;99.90
23813;DHT22;12087;45.190;5.688;2022-09-23T00:30:29;14.10;99.90
23813;DHT22;12087;45.190;5.688;2022-09-23T00:35:57;14.10;99.90
23813;DHT22;12087;45.190;5.688;2022-09-23T00:41:21;14.10;99.90
23813;DHT22;12087;45.190;5.688;2022-09-23T00:46:43;14.10;99.90
23813;DHT22;12087;45.190;5.688;2022-09-23T00:52:09;14.00;99.90
23813;DHT22;12087;45.190;5.688;2022-09-23T00:57:34;14.10;99.90
23813;DHT22;12087;45.190;5.688;2022-09-23T01:02:58;14.00;99.90
23813;DHT22;12087;45.190;5.688;2022-09-23T01:08:22;14.00;99.90
23813;DHT22;12087;45.190;5.688;2022-09-23T01:13:53;14.00;99.90
23813;DHT22;12087;45.190;5.688;2022-09-23T01:19:45;13.90;99.90
23813;DHT22;12087;45.190;5.688;2022-09-23T01:25:29;13.90;99.90
23813;DHT22;12087;45.190;5.688;2022-09-23T01:30:59;13.90;99.90
23813;DHT22;12087;45.190;5.688;2022-09-23T01:36:26;13.90;99.90
23813;DHT22;12087;45.190;5.688;2022-09-23T01:41:57;13.80;99.90
23813;DHT22;12087;45.190;5.688;2022-09-23T01:47:26;13.80;99.90
23813;DHT22;12087;45.190;5.688;2022-09-23T01:52:53;13.70;99.90
23813;DHT22;12087;45.190;5.688;2022-09-23T01:58:20;13.70;99.90
23813;DHT22;12087;45.190;5.688;2022-09-23T02:03:49;13.70;99.90
23813;DHT22;12087;45.190;5.688;2022-09-23T02:09:20;13.60;99.90
23813;DHT22;12087;45.190;5.688;2022-09-23T02:14:48;13.50;99.90
23813;DHT22;12087;45.190;5.688;2022-09-23T02:20:14;13.50;99.90
23813;DHT22;12087;45.190;5.688;2022-09-23T02:25:46;13.40;99.90
23813;DHT22;12087;45.190;5.688;2022-09-23T02:31:20;13.30;99.90
23813;DHT22;12087;45.190;5.688;2022-09-23T02:36:51;13.20;99.90
23813;DHT22;12087;45.190;5.688;2022-09-23T02:42:20;13.20;99.90
23813;DHT22;12087;45.190;5.688;2022-09-23T02:47:48;13.20;99.90
23813;DHT22;12087;45.190;5.688;2022-09-23T02:53:14;13.00;99.90
23813;DHT22;12087;45.190;5.688;2022-09-23T02:58:36;13.00;99.90
23813;DHT22;12087;45.190;5.688;2022-09-23T03:04:04;12.90;99.90
23813;DHT22;12087;45.190;5.688;2022-09-23T03:09:33;12.90;99.90
23813;DHT22;12087;45.190;5.688;2022-09-23T03:15:04;13.00;99.90
23813;DHT22;12087;45.190;5.688;2022-09-23T03:20:32;13.00;99.90
23813;DHT22;12087;45.190;5.688;2022-09-23T03:25:59;13.10;99.90
23813;DHT22;12087;45.190;5.688;2022-09-23T03:31:24;13.10;99.90
23813;DHT22;12087;45.190;5.688;2022-09-23T03:36:52;13.20;99.90
23813;DHT22;12087;45.190;5.688;2022-09-23T03:42:23;13.20;99.90
23813;DHT22;12087;45.190;5.688;2022-09-23T03:47:46;13.30;99.90
23813;DHT22;12087;45.190;5.688;2022-09-23T03:53:08;13.30;99.90
23813;DHT22;12087;45.190;5.688;2022-09-23T03:58:35;13.30;99.90
23813;DHT22;12087;45.190;5.688;2022-09-23T04:03:57;13.30;99.90
23813;DHT22;12087;45.190;5.688;2022-09-23T04:09:19;13.30;99.90
23813;DHT22;12087;45.190;5.688;2022-09-23T04:14:43;13.30;99.90
23813;DHT22;12087;45.190;5.688;2022-09-23T04:20:06;13.30;99.90
23813;DHT22;12087;45.190;5.688;2022-09-23T04:25:28;13.20;99.90
23813;DHT22;12087;45.190;5.688;2022-09-23T04:30:52;13.20;99.90
23813;DHT22;12087;45.190;5.688;2022-09-23T04:36:17;13.20;99.90
23813;DHT22;12087;45.190;5.688;2022-09-23T04:41:39;13.20;99.90
23813;DHT22;12087;45.190;5.688;2022-09-23T04:47:03;13.20;99.90
23813;DHT22;12087;45.190;5.688;2022-09-23T04:52:25;13.20;99.90
23813;DHT22;12087;45.190;5.688;2022-09-23T04:57:48;13.30;99.90
23813;DHT22;12087;45.190;5.688;2022-09-23T05:03:11;13.30;99.90
23813;DHT22;12087;45.190;5.688;2022-09-23T05:08:35;13.30;99.90
23813;DHT22;12087;45.190;5.688;2022-09-23T05:13:57;13.40;99.90
23813;DHT22;12087;45.190;5.688;2022-09-23T05:19:21;13.30;99.90
23813;DHT22;12087;45.190;5.688;2022-09-23T05:24:43;13.30;99.90
23813;DHT22;12087;45.190;5.688;2022-09-23T05:30:07;13.30;99.90
23813;DHT22;12087;45.190;5.688;2022-09-23T05:35:31;13.20;99.90
23813;DHT22;12087;45.190;5.688;2022-09-23T05:40:56;13.10;99.90
23813;DHT22;12087;45.190;5.688;2022-09-23T05:46:20;13.20;99.90
23813;DHT22;12087;45.190;5.688;2022-09-23T05:51:44;13.10;99.90
23813;DHT22;12087;45.190;5.688;2022-09-23T05:57:06;13.10;99.90
23813;DHT22;12087;45.190;5.688;2022-09-23T06:02:28;13.00;99.90
23813;DHT22;12087;45.190;5.688;2022-09-23T06:07:52;13.10;99.90
23813;DHT22;12087;45.190;5.688;2022-09-23T06:13:15;13.10;99.90
23813;DHT22;12087;45.190;5.688;2022-09-23T06:18:39;13.10;99.90
23813;DHT22;12087;45.190;5.688;2022-09-23T06:24:03;13.10;99.90
23813;DHT22;12087;45.190;5.688;2022-09-23T06:29:25;13.20;99.90
23813;DHT22;12087;45.190;5.688;2022-09-23T06:34:51;13.20;99.90
23813;DHT22;12087;45.190;5.688;2022-09-23T06:40:14;13.20;99.90
23813;DHT22;12087;45.190;5.688;2022-09-23T06:45:37;13.30;99.90
23813;DHT22;12087;45.190;5.688;2022-09-23T06:51:00;13.30;99.90
23813;DHT22;12087;45.190;5.688;2022-09-23T06:56:25;13.40;99.90
23813;DHT22;12087;45.190;5.688;2022-09-23T07:01:47;13.50;99.90
23813;DHT22;12087;45.190;5.688;2022-09-23T07:07:10;13.60;99.90
23813;DHT22;12087;45.190;5.688;2022-09-23T07:12:35;13.70;99.90
23813;DHT22;12087;45.190;5.688;2022-09-23T07:17:57;13.80;99.90
23813;DHT22;12087;45.190;5.688;2022-09-23T07:23:20;13.90;99.90
23813;DHT22;12087;45.190;5.688;2022-09-23T07:28:43;14.00;99.90
23813;DHT22;12087;45.190;5.688;2022-09-23T07:34:07;14.20;99.90
23813;DHT22;12087;45.190;5.688;2022-09-23T07:39:31;14.40;99.90
23813;DHT22;12087;45.190;5.688;2022-09-23T07:44:54;14.50;99.90
23813;DHT22;12087;45.190;5.688;2022-09-23T07:50:17;14.60;99.90
23813;DHT22;12087;45.190;5.688;2022-09-23T07:55:39;14.80;99.90
23813;DHT22;12087;45.190;5.688;2022-09-23T08:01:05;15.00;99.90
23813;DHT22;12087;45.190;5.688;2022-09-23T08:06:29;15.10;99.90
23813;DHT22;12087;45.190;5.688;2022-09-23T08:11:51;15.30;99.90
23813;DHT22;12087;45.190;5.688;2022-09-23T08:17:15;15.50;99.90
23813;DHT22;12087;45.190;5.688;2022-09-23T08:22:37;15.60;99.90
23813;DHT22;12087;45.190;5.688;2022-09-23T08:27:59;15.80;99.90
23813;DHT22;12087;45.190;5.688;2022-09-23T08:33:23;15.90;99.90
23813;DHT22;12087;45.190;5.688;2022-09-23T08:38:45;16.00;99.90
23813;DHT22;12087;45.190;5.688;2022-09-23T08:44:13;16.10;99.90
23813;DHT22;12087;45.190;5.688;2022-09-23T08:49:49;16.30;99.90
23813;DHT22;12087;45.190;5.688;2022-09-23T08:55:15;16.40;99.90
23813;DHT22;12087;45.190;5.688;2022-09-23T09:00:40;16.60;99.90
23813;DHT22;12087;45.190;5.688;2022-09-23T09:06:13;16.70;99.90
23813;DHT22;12087;45.190;5.688;2022-09-23T09:11:41;16.80;99.90
23813;DHT22;12087;45.190;5.688;2022-09-23T09:17:07;17.00;99.90
23813;DHT22;12087;45.190;5.688;2022-09-23T09:22:44;17.20;99.90
23813;DHT22;12087;45.190;5.688;2022-09-23T09:28:13;17.30;99.90
23813;DHT22;12087;45.190;5.688;2022-09-23T09:33:42;17.50;99.90
23813;DHT22;12087;45.190;5.688;2022-09-23T09:39:10;17.60;99.90
23813;DHT22;12087;45.190;5.688;2022-09-23T09:44:37;17.70;99.90
23813;DHT22;12087;45.190;5.688;2022-09-23T09:50:05;17.80;99.90
23813;DHT22;12087;45.190;5.688;2022-09-23T09:55:29;17.90;99.90
23813;DHT22;12087;45.190;5.688;2022-09-23T10:00:51;18.10;99.90
23813;DHT22;12087;45.190;5.688;2022-09-23T10:06:19;18.20;99.90
23813;DHT22;12087;45.190;5.688;2022-09-23T10:12:02;18.40;99.90
23813;DHT22;12087;45.190;5.688;2022-09-23T10:17:28;18.50;99.90
23813;DHT22;12087;45.190;5.688;2022-09-23T10:22:52;18.60;99.90
23813;DHT22;12087;45.190;5.688;2022-09-23T10:28:39;18.80;99.90
23813;DHT22;12087;45.190;5.688;2022-09-23T10:34:18;18.90;99.90
23813;DHT22;12087;45.190;5.688;2022-09-23T10:39:41;19.00;99.90
23813;DHT22;12087;45.190;5.688;2022-09-23T10:45:25;19.10;99.90
23813;DHT22;12087;45.190;5.688;2022-09-23T10:51:12;19.20;99.90
23813;DHT22;12087;45.190;5.688;2022-09-23T10:56:40;19.40;99.90
23813;DHT22;12087;45.190;5.688;2022-09-23T11:02:22;19.70;99.90
23813;DHT22;12087;45.190;5.688;2022-09-23T11:07:55;19.90;99.90
23813;DHT22;12087;45.190;5.688;2022-09-23T11:13:46;20.10;99.70
23813;DHT22;12087;45.190;5.688;2022-09-23T11:19:33;20.30;99.50
23813;DHT22;12087;45.190;5.688;2022-09-23T11:25:12;20.50;99.10
23813;DHT22;12087;45.190;5.688;2022-09-23T11:30:42;20.60;98.80
23813;DHT22;12087;45.190;5.688;2022-09-23T11:36:18;20.70;98.70
23813;DHT22;12087;45.190;5.688;2022-09-23T11:41:44;20.90;98.80
23813;DHT22;12087;45.190;5.688;2022-09-23T11:47:13;21.20;98.50
23813;DHT22;12087;45.190;5.688;2022-09-23T11:52:44;21.40;97.10
23813;DHT22;12087;45.190;5.688;2022-09-23T11:58:10;21.40;96.90
23813;DHT22;12087;45.190;5.688;2022-09-23T12:03:42;21.50;97.80
23813;DHT22;12087;45.190;5.688;2022-09-23T12:09:14;21.80;97.60
23813;DHT22;12087;45.190;5.688;2022-09-23T12:14:49;21.90;97.80
23813;DHT22;12087;45.190;5.688;2022-09-23T12:26:27;22.20;97.10
23813;DHT22;12087;45.190;5.688;2022-09-23T12:31:51;22.00;97.50
23813;DHT22;12087;45.190;5.688;2022-09-23T12:37:23;21.90;97.80
23813;DHT22;12087;45.190;5.688;2022-09-23T12:42:48;22.00;98.00
23813;DHT22;12087;45.190;5.688;2022-09-23T12:48:43;22.00;98.60
23813;DHT22;12087;45.190;5.688;2022-09-23T12:54:22;22.10;99.00
23813;DHT22;12087;45.190;5.688;2022-09-23T12:59:57;22.10;99.60
23813;DHT22;12087;45.190;5.688;2022-09-23T13:05:21;22.10;99.90
23813;DHT22;12087;45.190;5.688;2022-09-23T13:11:04;22.00;99.30
23813;DHT22;12087;45.190;5.688;2022-09-23T13:16:31;22.20;99.10
23813;DHT22;12087;45.190;5.688;2022-09-23T13:22:00;22.40;99.50
23813;DHT22;12087;45.190;5.688;2022-09-23T13:27:26;22.60;99.70
23813;DHT22;12087;45.190;5.688;2022-09-23T13:33:01;22.70;99.90
23813;DHT22;12087;45.190;5.688;2022-09-23T13:38:25;22.60;99.90
23813;DHT22;12087;45.190;5.688;2022-09-23T13:43:51;22.60;99.90
23813;DHT22;12087;45.190;5.688;2022-09-23T13:49:24;22.60;99.90
23813;DHT22;12087;45.190;5.688;2022-09-23T13:54:49;22.60;99.90
23813;DHT22;12087;45.190;5.688;2022-09-23T14:00:16;22.60;99.90
23813;DHT22;12087;45.190;5.688;2022-09-23T14:05:42;22.50;99.90
23813;DHT22;12087;45.190;5.688;2022-09-23T14:11:05;22.40;99.90
23813;DHT22;12087;45.190;5.688;2022-09-23T14:16:28;22.30;99.90
23813;DHT22;12087;45.190;5.688;2022-09-23T14:21:53;22.30;99.90
23813;DHT22;12087;45.190;5.688;2022-09-23T14:27:19;22.30;99.90
23813;DHT22;12087;45.190;5.688;2022-09-23T14:32:41;22.30;99.90
23813;DHT22;12087;45.190;5.688;2022-09-23T14:38:05;22.20;99.90
23813;DHT22;12087;45.190;5.688;2022-09-23T14:43:47;22.30;99.90
23813;DHT22;12087;45.190;5.688;2022-09-23T14:49:15;22.50;99.90
23813;DHT22;12087;45.190;5.688;2022-09-23T14:54:43;22.60;99.90
23813;DHT22;12087;45.190;5.688;2022-09-23T15:00:12;22.70;99.90
23813;DHT22;12087;45.190;5.688;2022-09-23T15:05:40;22.70;99.90
23813;DHT22;12087;45.190;5.688;2022-09-23T15:11:04;22.60;99.90
23813;DHT22;12087;45.190;5.688;2022-09-23T15:35:49;22.20;99.90
23813;DHT22;12087;45.190;5.688;2022-09-23T15:41:30;22.10;99.90
23813;DHT22;12087;45.190;5.688;2022-09-23T15:47:02;22.00;99.90
23813;DHT22;12087;45.190;5.688;2022-09-23T15:52:27;21.90;99.90
23813;DHT22;12087;45.190;5.688;2022-09-23T15:57:49;21.80;99.90
23813;DHT22;12087;45.190;5.688;2022-09-23T16:03:14;21.70;99.90
23813;DHT22;12087;45.190;5.688;2022-09-23T16:09:17;21.70;99.90
23813;DHT22;12087;45.190;5.688;2022-09-23T16:15:43;21.70;99.90
23813;DHT22;12087;45.190;5.688;2022-09-23T16:33:54;21.50;99.90
23813;DHT22;12087;45.190;5.688;2022-09-23T16:39:17;21.40;99.90
23813;DHT22;12087;45.190;5.688;2022-09-23T16:44:41;21.30;99.90
23813;DHT22;12087;45.190;5.688;2022-09-23T16:50:06;21.30;99.90
23813;DHT22;12087;45.190;5.688;2022-09-23T16:55:29;21.20;99.90
23813;DHT22;12087;45.190;5.688;2022-09-23T17:00:56;21.10;99.90
23813;DHT22;12087;45.190;5.688;2022-09-23T17:06:41;21.00;99.90
23813;DHT22;12087;45.190;5.688;2022-09-23T17:12:10;21.00;99.90
23813;DHT22;12087;45.190;5.688;2022-09-23T17:17:35;20.90;99.90
23813;DHT22;12087;45.190;5.688;2022-09-23T17:22:59;20.90;99.90
23813;DHT22;12087;45.190;5.688;2022-09-23T17:28:22;20.80;99.90
23813;DHT22;12087;45.190;5.688;2022-09-23T17:33:44;20.70;99.90
23813;DHT22;12087;45.190;5.688;2022-09-23T17:39:08;20.70;99.90
23813;DHT22;12087;45.190;5.688;2022-09-23T17:44:31;20.60;99.90
23813;DHT22;12087;45.190;5.688;2022-09-23T17:49:56;20.60;99.90
23813;DHT22;12087;45.190;5.688;2022-09-23T17:55:23;20.50;99.90
23813;DHT22;12087;45.190;5.688;2022-09-23T18:00:46;20.40;99.90
23813;DHT22;12087;45.190;5.688;2022-09-23T18:06:14;20.40;99.90
23813;DHT22;12087;45.190;5.688;2022-09-23T18:11:40;20.30;99.90
23813;DHT22;12087;45.190;5.688;2022-09-23T18:17:02;20.30;99.90
23813;DHT22;12087;45.190;5.688;2022-09-23T18:22:25;20.30;99.90
23813;DHT22;12087;45.190;5.688;2022-09-23T18:27:49;20.20;99.90
23813;DHT22;12087;45.190;5.688;2022-09-23T18:33:14;20.20;99.90
23813;DHT22;12087;45.190;5.688;2022-09-23T18:38:41;20.10;99.90
23813;DHT22;12087;45.190;5.688;2022-09-23T18:44:05;20.10;99.90
23813;DHT22;12087;45.190;5.688;2022-09-23T18:49:27;20.00;99.90
23813;DHT22;12087;45.190;5.688;2022-09-23T18:55:12;20.00;99.90
23813;DHT22;12087;45.190;5.688;2022-09-23T19:00:37;19.90;99.90
23813;DHT22;12087;45.190;5.688;2022-09-23T19:06:04;19.90;99.90
23813;DHT22;12087;45.190;5.688;2022-09-23T19:11:27;19.80;99.90
23813;DHT22;12087;45.190;5.688;2022-09-23T19:16:51;19.70;99.90
23813;DHT22;12087;45.190;5.688;2022-09-23T19:22:14;19.60;99.90
23813;DHT22;12087;45.190;5.688;2022-09-23T19:27:39;19.60;99.90
23813;DHT22;12087;45.190;5.688;2022-09-23T19:33:03;19.60;99.90
23813;DHT22;12087;45.190;5.688;2022-09-23T19:38:25;19.50;99.90
23813;DHT22;12087;45.190;5.688;2022-09-23T19:43:47;19.50;99.90
23813;DHT22;12087;45.190;5.688;2022-09-23T19:49:14;19.40;99.90
23813;DHT22;12087;45.190;5.688;2022-09-23T19:54:38;19.30;99.90
23813;DHT22;12087;45.190;5.688;2022-09-23T20:00:01;19.20;99.90
23813;DHT22;12087;45.190;5.688;2022-09-23T20:05:26;19.20;99.90
23813;DHT22;12087;45.190;5.688;2022-09-23T20:10:48;19.10;99.90
23813;DHT22;12087;45.190;5.688;2022-09-23T20:16:13;19.10;99.90
23813;DHT22;12087;45.190;5.688;2022-09-23T20:21:37;19.00;99.90
23813;DHT22;12087;45.190;5.688;2022-09-23T20:26:59;19.00;99.90
23813;DHT22;12087;45.190;5.688;2022-09-23T20:32:31;19.00;99.90
23813;DHT22;12087;45.190;5.688;2022-09-23T20:37:54;19.00;99.90
23813;DHT22;12087;45.190;5.688;2022-09-23T20:43:17;19.10;99.90
23813;DHT22;12087;45.190;5.688;2022-09-23T20:48:39;19.00;99.90
23813;DHT22;12087;45.190;5.688;2022-09-23T20:54:04;19.00;99.90
23813;DHT22;12087;45.190;5.688;2022-09-23T20:59:27;19.00;99.90
23813;DHT22;12087;45.190;5.688;2022-09-23T21:04:49;19.00;99.90
23813;DHT22;12087;45.190;5.688;2022-09-23T21:10:13;19.00;99.90
23813;DHT22;12087;45.190;5.688;2022-09-23T21:21:37;18.90;99.90
23813;DHT22;12087;45.190;5.688;2022-09-23T21:27:01;18.90;99.90
23813;DHT22;12087;45.190;5.688;2022-09-23T21:32:24;18.90;99.90
23813;DHT22;12087;45.190;5.688;2022-09-23T21:37:46;18.80;99.90
23813;DHT22;12087;45.190;5.688;2022-09-23T21:43:10;18.90;99.90
23813;DHT22;12087;45.190;5.688;2022-09-23T21:48:33;18.90;99.90
23813;DHT22;12087;45.190;5.688;2022-09-23T21:53:57;18.80;99.90
23813;DHT22;12087;45.190;5.688;2022-09-23T21:59:22;18.80;99.90
23813;DHT22;12087;45.190;5.688;2022-09-23T22:04:44;18.80;99.90
23813;DHT22;12087;45.190;5.688;2022-09-23T22:10:07;18.70;99.90
23813;DHT22;12087;45.190;5.688;2022-09-23T22:15:31;18.70;99.90
23813;DHT22;12087;45.190;5.688;2022-09-23T22:20:57;18.70;99.90
23813;DHT22;12087;45.190;5.688;2022-09-23T22:26:19;18.70;99.90
23813;DHT22;12087;45.190;5.688;2022-09-23T22:31:43;18.70;99.90
23813;DHT22;12087;45.190;5.688;2022-09-23T22:37:24;18.80;99.90
23813;DHT22;12087;45.190;5.688;2022-09-23T22:42:47;18.80;99.90
23813;DHT22;12087;45.190;5.688;2022-09-23T22:48:10;18.80;99.90
23813;DHT22;12087;45.190;5.688;2022-09-23T22:53:33;18.70;99.90
23813;DHT22;12087;45.190;5.688;2022-09-23T22:58:59;18.70;99.90
23813;DHT22;12087;45.190;5.688;2022-09-23T23:04:22;18.80;99.90
23813;DHT22;12087;45.190;5.688;2022-09-23T23:09:45;18.70;99.90
23813;DHT22;12087;45.190;5.688;2022-09-23T23:15:08;18.70;99.90
23813;DHT22;12087;45.190;5.688;2022-09-23T23:20:33;18.60;99.90
23813;DHT22;12087;45.190;5.688;2022-09-23T23:25:55;18.40;99.90
23813;DHT22;12087;45.190;5.688;2022-09-23T23:31:19;18.10;99.90
23813;DHT22;12087;45.190;5.688;2022-09-23T23:36:44;17.90;99.90
23813;DHT22;12087;45.190;5.688;2022-09-23T23:42:07;17.80;99.90
23813;DHT22;12087;45.190;5.688;2022-09-23T23:47:30;17.70;99.90
23813;DHT22;12087;45.190;5.688;2022-09-23T23:52:53;17.70;99.90
23813;DHT22;12087;45.190;5.688;2022-09-23T23:58:16;17.70;99.90
